createdAt,value
2018-09-21T00:01:21.173Z,23.42
2018-09-21T00:03:55.168Z,23.47
2018-09-21T00:06:24.525Z,23.45
2018-09-21T00:08:54.279Z,23.45
2018-09-21T00:11:23.286Z,23.46
2018-09-21T00:13:52.555Z,23.51
2018-09-21T00:16:22.093Z,23.41
2018-09-21T00:18:51.197Z,23.31
2018-09-21T00:21:20.441Z,23.24
2018-09-21T00:23:49.328Z,23.20
2018-09-21T00:26:18.249Z,23.25
2018-09-21T00:28:47.521Z,23.25
2018-09-21T00:31:16.428Z,23.04
2018-09-21T00:33:45.269Z,23.07
2018-09-21T00:36:14.649Z,23.10
2018-09-21T00:38:43.496Z,23.07
2018-09-21T00:41:12.373Z,23.12
2018-09-21T00:43:41.637Z,23.02
2018-09-21T00:46:10.512Z,23.14
2018-09-21T00:48:39.381Z,23.14
2018-09-21T00:51:08.676Z,23.16
2018-09-21T00:53:37.564Z,23.27
2018-09-21T00:56:06.407Z,23.28
2018-09-21T00:58:35.634Z,23.34
2018-09-21T01:01:04.548Z,23.35
2018-09-21T01:03:33.404Z,23.37
2018-09-21T01:06:03.312Z,23.38
2018-09-21T01:08:32.179Z,23.43
2018-09-21T01:11:01.081Z,23.46
2018-09-21T01:13:30.279Z,23.47
2018-09-21T01:15:59.232Z,23.45
2018-09-21T01:18:28.076Z,23.45
2018-09-21T01:20:57.500Z,23.46
2018-09-21T01:23:26.378Z,23.46
2018-09-21T01:25:55.466Z,23.46
2018-09-21T01:28:24.746Z,23.40
2018-09-21T01:30:53.571Z,23.29
2018-09-21T01:33:22.395Z,23.21
2018-09-21T01:35:52.666Z,23.17
2018-09-21T01:38:21.529Z,23.20
2018-09-21T01:40:50.385Z,23.31
2018-09-21T01:43:19.821Z,23.26
2018-09-21T01:45:48.682Z,23.20
2018-09-21T01:48:18.513Z,23.16
2018-09-21T01:50:47.907Z,23.20
2018-09-21T01:53:16.758Z,23.21
2018-09-21T01:55:45.662Z,23.14
2018-09-21T01:58:14.808Z,23.12
2018-09-21T02:00:43.685Z,23.13
2018-09-21T02:03:12.564Z,22.98
2018-09-21T02:05:41.837Z,22.93
2018-09-21T02:08:10.802Z,22.93
2018-09-21T02:10:39.702Z,22.81
2018-09-21T02:13:08.616Z,22.70
2018-09-21T02:15:37.966Z,22.45
2018-09-21T02:18:06.793Z,22.46
2018-09-21T02:20:35.765Z,22.33
2018-09-21T02:23:04.644Z,22.34
2018-09-21T02:25:33.878Z,22.33
2018-09-21T02:28:03.456Z,22.29
2018-09-21T02:30:32.385Z,22.07
2018-09-21T02:33:01.589Z,22.04
2018-09-21T02:35:30.416Z,22.12
2018-09-21T02:37:59.305Z,22.17
2018-09-21T02:40:28.283Z,22.29
2018-09-21T02:42:57.142Z,22.24
2018-09-21T02:45:26.356Z,22.17
2018-09-21T02:47:55.227Z,22.03
2018-09-21T02:50:24.229Z,22.14
2018-09-21T02:52:53.097Z,22.14
2018-09-21T02:55:21.966Z,22.18
2018-09-21T02:57:51.404Z,22.15
2018-09-21T03:00:20.343Z,22.06
2018-09-21T03:02:49.178Z,21.92
2018-09-21T03:05:18.176Z,21.89
2018-09-21T03:07:47.044Z,21.81
2018-09-21T03:10:16.599Z,21.88
2018-09-21T03:12:45.529Z,21.94
2018-09-21T03:15:14.507Z,21.96
2018-09-21T03:17:43.909Z,21.96
2018-09-21T03:20:12.800Z,22.00
2018-09-21T03:22:41.666Z,21.99
2018-09-21T03:25:10.928Z,21.85
2018-09-21T03:27:39.809Z,21.93
2018-09-21T03:30:08.726Z,22.03
2018-09-21T03:32:37.914Z,22.01
2018-09-21T03:35:06.969Z,22.10
2018-09-21T03:37:35.814Z,21.64
2018-09-21T03:40:05.730Z,21.81
2018-09-21T03:42:34.599Z,21.74
2018-09-21T03:45:03.490Z,21.72
2018-09-21T03:47:32.716Z,21.71
2018-09-21T03:50:01.625Z,21.79
2018-09-21T03:52:30.537Z,21.65
2018-09-21T03:54:59.800Z,21.60
2018-09-21T03:57:28.657Z,21.60
2018-09-21T03:59:57.550Z,21.59
2018-09-21T04:02:26.845Z,21.59
2018-09-21T04:04:55.741Z,21.57
2018-09-21T04:07:24.655Z,21.59
2018-09-21T04:09:53.781Z,21.54
2018-09-21T04:12:23.072Z,21.46
2018-09-21T04:14:51.984Z,21.45
2018-09-21T04:17:21.981Z,21.51
2018-09-21T04:19:50.873Z,21.44
2018-09-21T04:22:20.003Z,21.46
2018-09-21T04:24:48.905Z,21.49
2018-09-21T04:27:17.797Z,21.38
2018-09-21T04:29:47.162Z,21.44
2018-09-21T04:32:16.210Z,21.48
2018-09-21T04:34:45.115Z,21.37
2018-09-21T04:37:14.357Z,21.37
2018-09-21T04:39:44.185Z,21.46
2018-09-21T04:42:13.114Z,21.20
2018-09-21T04:44:42.351Z,21.35
2018-09-21T04:47:11.271Z,21.28
2018-09-21T04:49:40.169Z,21.32
2018-09-21T04:52:09.398Z,21.35
2018-09-21T04:54:38.287Z,21.35
2018-09-21T04:57:07.134Z,21.31
2018-09-21T04:59:36.438Z,21.29
2018-09-21T05:02:06.053Z,21.31
2018-09-21T05:04:34.978Z,21.11
2018-09-21T05:07:04.317Z,21.06
2018-09-21T05:09:33.242Z,20.99
2018-09-21T05:12:02.954Z,21.10
2018-09-21T05:14:32.238Z,21.04
2018-09-21T05:17:01.102Z,21.08
2018-09-21T05:19:29.970Z,21.19
2018-09-21T05:21:59.227Z,21.29
2018-09-21T05:24:28.144Z,21.13
2018-09-21T05:26:57.035Z,21.14
2018-09-21T05:29:26.239Z,21.20
2018-09-21T05:31:55.194Z,21.27
2018-09-21T05:34:24.066Z,21.31
2018-09-21T05:36:53.261Z,21.36
2018-09-21T05:39:22.200Z,21.49
2018-09-21T05:41:51.102Z,21.46
2018-09-21T05:44:20.583Z,21.49
2018-09-21T05:46:49.537Z,21.59
2018-09-21T05:49:18.937Z,21.69
2018-09-21T05:51:47.911Z,21.72
2018-09-21T05:54:17.153Z,21.60
2018-09-21T05:56:47.255Z,21.48
2018-09-21T05:59:16.142Z,21.56
2018-09-21T06:01:45.029Z,21.47
2018-09-21T06:04:14.361Z,21.48
2018-09-21T06:06:43.280Z,21.48
2018-09-21T06:09:13.598Z,21.54
2018-09-21T06:11:43.449Z,21.57
2018-09-21T06:14:13.002Z,21.53
2018-09-21T06:16:41.850Z,21.61
2018-09-21T06:19:11.275Z,21.70
2018-09-21T06:21:40.128Z,21.77
2018-09-21T06:24:08.992Z,21.86
2018-09-21T06:26:38.098Z,21.85
2018-09-21T06:29:06.974Z,21.88
2018-09-21T06:31:35.825Z,21.85
2018-09-21T06:34:06.608Z,21.95
2018-09-21T06:36:35.492Z,21.91
2018-09-21T06:39:06.283Z,22.02
2018-09-21T06:41:35.174Z,22.06
2018-09-21T06:44:04.856Z,22.21
2018-09-21T06:46:34.591Z,22.09
2018-09-21T06:49:03.555Z,22.00
2018-09-21T06:51:32.475Z,21.94
2018-09-21T06:54:03.112Z,22.02
2018-09-21T06:56:38.603Z,22.08
2018-09-21T06:59:08.182Z,22.09
2018-09-21T07:01:37.063Z,22.00
2018-09-21T07:04:06.301Z,22.01
2018-09-21T07:06:35.163Z,22.03
2018-09-21T07:09:06.857Z,22.04
2018-09-21T07:11:36.040Z,22.08
2018-09-21T07:14:07.479Z,22.10
2018-09-21T07:16:36.342Z,22.04
2018-09-21T07:19:05.721Z,22.07
2018-09-21T07:21:34.566Z,22.05
2018-09-21T07:24:05.422Z,22.11
2018-09-21T07:26:34.843Z,22.13
2018-09-21T07:29:03.748Z,21.96
2018-09-21T07:31:32.581Z,22.04
2018-09-21T07:34:01.898Z,22.10
2018-09-21T07:36:31.177Z,22.16
2018-09-21T07:39:00.079Z,22.16
2018-09-21T07:41:29.341Z,22.18
2018-09-21T07:43:58.294Z,22.31
2018-09-21T07:46:27.265Z,22.37
2018-09-21T07:48:56.483Z,22.44
2018-09-21T07:51:25.462Z,22.45
2018-09-21T07:53:54.355Z,22.58
2018-09-21T07:56:23.707Z,22.77
2018-09-21T07:58:52.597Z,22.79
2018-09-21T08:01:21.467Z,22.87
2018-09-21T08:03:50.854Z,22.95
2018-09-21T08:06:19.974Z,23.16
2018-09-21T08:08:48.921Z,23.31
2018-09-21T08:11:18.085Z,23.29
2018-09-21T08:13:47.045Z,23.36
2018-09-21T08:16:16.049Z,23.48
2018-09-21T08:18:44.888Z,23.56
2018-09-21T08:21:13.781Z,23.53
2018-09-21T08:23:42.909Z,23.64
2018-09-21T08:26:11.911Z,23.63
2018-09-21T08:28:40.840Z,23.66
2018-09-21T08:31:09.648Z,23.56
2018-09-21T08:33:39.291Z,23.66
2018-09-21T08:36:10.693Z,23.78
2018-09-21T08:38:39.580Z,24.02
2018-09-21T08:41:08.551Z,24.25
2018-09-21T08:43:37.715Z,24.45
2018-09-21T08:46:06.622Z,24.64
2018-09-21T08:48:35.584Z,24.76
2018-09-21T08:51:05.108Z,25.00
2018-09-21T08:53:33.966Z,25.18
2018-09-21T08:56:03.447Z,25.39
2018-09-21T08:58:32.743Z,25.49
2018-09-21T09:01:01.700Z,25.60
2018-09-21T09:03:30.619Z,25.76
2018-09-21T09:05:59.529Z,25.88
2018-09-21T09:08:28.386Z,26.04
2018-09-21T09:10:57.256Z,26.06
2018-09-21T09:13:26.405Z,26.08
2018-09-21T09:15:55.242Z,26.22
2018-09-21T09:18:24.159Z,26.18
2018-09-21T09:20:53.085Z,26.11
2018-09-21T09:23:21.967Z,26.16
2018-09-21T09:25:51.297Z,26.02
2018-09-21T09:28:20.213Z,26.11
2018-09-21T09:30:49.070Z,25.92
2018-09-21T09:33:18.346Z,26.05
2018-09-21T09:35:47.198Z,26.00
2018-09-21T09:38:17.083Z,26.00
2018-09-21T09:40:46.275Z,26.09
2018-09-21T09:43:21.446Z,26.06
2018-09-21T09:45:50.384Z,26.10
2018-09-21T09:48:19.360Z,26.06
2018-09-21T09:50:48.198Z,26.21
2018-09-21T09:53:17.437Z,26.33
2018-09-21T09:55:46.301Z,26.37
2018-09-21T09:58:15.195Z,26.32
2018-09-21T10:00:49.541Z,26.35
2018-09-21T10:03:18.413Z,26.40
2018-09-21T10:05:47.280Z,26.32
2018-09-21T10:08:16.295Z,26.35
2018-09-21T10:10:45.239Z,26.28
2018-09-21T10:13:14.502Z,26.39
2018-09-21T10:15:43.513Z,26.36
2018-09-21T10:18:12.449Z,26.23
2018-09-21T10:20:41.688Z,26.18
2018-09-21T10:23:10.714Z,26.24
2018-09-21T10:25:39.625Z,26.17
2018-09-21T10:28:09.051Z,26.22
2018-09-21T10:30:38.044Z,26.24
2018-09-21T10:33:07.051Z,26.37
2018-09-21T10:35:36.573Z,26.61
2018-09-21T10:38:06.616Z,26.48
2018-09-21T10:40:35.498Z,26.45
2018-09-21T10:43:04.498Z,26.38
2018-09-21T10:45:33.348Z,26.39
2018-09-21T10:48:03.243Z,26.42
2018-09-21T10:50:32.148Z,26.46
2018-09-21T10:53:01.152Z,26.37
2018-09-21T10:55:30.114Z,26.34
2018-09-21T10:57:58.962Z,26.27
2018-09-21T11:00:28.246Z,26.11
2018-09-21T11:02:57.177Z,26.03
2018-09-21T11:05:26.159Z,25.97
2018-09-21T11:07:55.361Z,26.01
2018-09-21T11:10:24.245Z,26.09
2018-09-21T11:12:53.379Z,26.14
2018-09-21T11:15:22.668Z,26.08
2018-09-21T11:17:51.566Z,26.09
2018-09-21T11:20:20.437Z,26.14
2018-09-21T11:22:49.637Z,26.13
2018-09-21T11:25:18.500Z,26.04
2018-09-21T11:27:56.099Z,26.01
2018-09-21T11:30:25.342Z,26.03
2018-09-21T11:32:54.238Z,26.04
2018-09-21T11:35:23.074Z,26.04
2018-09-21T11:37:52.330Z,26.11
2018-09-21T11:40:21.374Z,26.04
2018-09-21T11:42:50.285Z,26.03
2018-09-21T11:45:19.466Z,26.02
2018-09-21T11:47:48.414Z,26.01
2018-09-21T11:50:17.258Z,25.80
2018-09-21T11:52:47.477Z,25.88
2018-09-21T11:55:16.358Z,25.88
2018-09-21T11:57:45.298Z,25.90
2018-09-21T12:00:15.563Z,25.93
2018-09-21T12:02:44.566Z,25.82
2018-09-21T12:05:13.499Z,25.78
2018-09-21T12:07:42.394Z,25.70
2018-09-21T12:10:11.297Z,25.76
2018-09-21T12:12:40.708Z,25.85
2018-09-21T12:15:09.573Z,25.66
2018-09-21T12:17:38.509Z,25.63
2018-09-21T12:20:07.702Z,25.56
2018-09-21T12:22:36.658Z,25.57
2018-09-21T12:25:05.593Z,25.44
2018-09-21T12:27:34.822Z,25.42
2018-09-21T12:30:04.729Z,25.44
2018-09-21T12:32:33.577Z,25.51
2018-09-21T12:35:02.832Z,25.61
2018-09-21T12:37:31.764Z,25.60
2018-09-21T12:40:00.677Z,25.52
2018-09-21T12:42:29.967Z,25.49
2018-09-21T12:44:58.744Z,25.56
2018-09-21T12:47:27.683Z,25.53
2018-09-21T12:49:56.878Z,25.43
2018-09-21T12:52:25.766Z,25.50
2018-09-21T12:54:54.593Z,25.58
2018-09-21T12:57:23.748Z,25.47
2018-09-21T12:59:52.958Z,25.49
2018-09-21T13:02:21.840Z,25.53
2018-09-21T13:04:51.063Z,25.59
2018-09-21T13:07:19.960Z,25.68
2018-09-21T13:09:48.792Z,25.70
2018-09-21T13:12:19.149Z,25.62
2018-09-21T13:14:48.052Z,25.58
2018-09-21T13:17:17.061Z,25.46
2018-09-21T13:19:45.927Z,25.44
2018-09-21T13:22:14.819Z,25.42
2018-09-21T13:24:44.018Z,25.31
2018-09-21T13:27:12.857Z,25.34
2018-09-21T13:29:41.792Z,25.35
2018-09-21T13:32:10.723Z,25.33
2018-09-21T13:34:39.889Z,25.27
2018-09-21T13:37:09.029Z,25.10
2018-09-21T13:39:37.860Z,24.99
2018-09-21T13:42:06.685Z,24.92
2018-09-21T13:44:35.594Z,24.81
2018-09-21T13:47:04.473Z,24.49
2018-09-21T13:49:33.880Z,24.45
2018-09-21T13:52:03.440Z,24.08
2018-09-21T13:54:32.295Z,23.98
2018-09-21T13:57:01.673Z,23.90
2018-09-21T13:59:30.658Z,23.73
2018-09-21T14:01:59.570Z,23.56
2018-09-21T14:04:28.775Z,23.23
2018-09-21T14:06:57.718Z,23.05
2018-09-21T14:09:30.147Z,22.70
2018-09-21T14:11:59.912Z,22.28
2018-09-21T14:14:28.761Z,22.08
2018-09-21T14:16:57.913Z,21.91
2018-09-21T14:19:27.029Z,21.55
2018-09-21T14:21:56.230Z,21.47
2018-09-21T14:24:25.664Z,21.26
2018-09-21T14:26:54.661Z,20.94
2018-09-21T14:29:23.612Z,20.94
2018-09-21T14:31:52.501Z,20.94
2018-09-21T14:34:21.394Z,20.96
2018-09-21T14:36:51.067Z,21.02
2018-09-21T14:39:20.028Z,20.85
2018-09-21T14:41:48.899Z,20.78
2018-09-21T14:44:17.817Z,20.62
2018-09-21T14:46:46.746Z,20.24
2018-09-21T14:49:16.132Z,19.98
2018-09-21T14:51:45.159Z,19.73
2018-09-21T14:54:14.026Z,19.65
2018-09-21T14:56:42.949Z,19.59
2018-09-21T14:59:11.789Z,19.49
2018-09-21T15:01:41.199Z,19.44
2018-09-21T15:04:10.164Z,19.34
2018-09-21T15:06:39.088Z,19.31
2018-09-21T15:09:10.505Z,19.32
2018-09-21T15:11:39.767Z,19.25
2018-09-21T15:14:08.732Z,19.33
2018-09-21T15:16:38.503Z,19.27
2018-09-21T15:19:07.373Z,19.15
2018-09-21T15:21:36.246Z,18.96
2018-09-21T15:24:06.260Z,18.90
2018-09-21T15:26:35.139Z,18.99
2018-09-21T15:29:04.062Z,18.85
2018-09-21T15:31:33.267Z,18.83
2018-09-21T15:34:03.166Z,18.91
2018-09-21T15:36:32.046Z,18.87
2018-09-21T15:39:01.291Z,19.01
2018-09-21T15:41:30.261Z,18.94
2018-09-21T15:43:59.132Z,19.03
2018-09-21T15:46:27.976Z,19.02
2018-09-21T15:48:56.894Z,19.00
2018-09-21T15:51:26.063Z,19.13
2018-09-21T15:53:54.962Z,19.18
2018-09-21T15:56:23.787Z,19.30
2018-09-21T15:58:53.064Z,19.26
2018-09-21T16:01:22.028Z,19.22
2018-09-21T16:03:50.882Z,18.98
2018-09-21T16:06:20.266Z,19.14
2018-09-21T16:08:49.159Z,19.26
2018-09-21T16:11:18.122Z,19.37
2018-09-21T16:13:47.462Z,19.59
2018-09-21T16:16:17.384Z,19.75
2018-09-21T16:18:46.318Z,19.93
2018-09-21T16:21:15.557Z,19.77
2018-09-21T16:23:44.686Z,19.84
2018-09-21T16:26:13.651Z,19.97
2018-09-21T16:28:42.975Z,20.12
2018-09-21T16:31:11.865Z,20.03
2018-09-21T16:33:40.756Z,19.97
2018-09-21T16:36:10.179Z,19.87
2018-09-21T16:38:39.129Z,19.58
2018-09-21T16:41:08.085Z,19.49
2018-09-21T16:43:37.254Z,19.40
2018-09-21T16:46:07.382Z,19.33
2018-09-21T16:48:36.238Z,19.12
2018-09-21T16:51:05.644Z,19.11
2018-09-21T16:53:34.615Z,19.25
2018-09-21T16:56:05.039Z,19.15
2018-09-21T16:58:34.400Z,19.00
2018-09-21T17:01:03.350Z,18.98
2018-09-21T17:03:32.218Z,19.15
2018-09-21T17:06:01.516Z,18.97
2018-09-21T17:08:30.481Z,18.96
2018-09-21T17:10:59.458Z,19.04
2018-09-21T17:13:28.800Z,18.92
2018-09-21T17:15:57.771Z,18.74
2018-09-21T17:18:26.807Z,18.70
2018-09-21T17:20:55.757Z,18.64
2018-09-21T17:23:24.720Z,18.59
2018-09-21T17:25:54.339Z,18.61
2018-09-21T17:28:23.246Z,18.66
2018-09-21T17:30:52.433Z,18.68
2018-09-21T17:33:21.718Z,18.65
2018-09-21T17:35:50.636Z,18.56
2018-09-21T17:38:19.989Z,18.41
2018-09-21T17:40:48.930Z,18.40
2018-09-21T17:43:17.846Z,18.48
2018-09-21T17:45:47.047Z,18.59
2018-09-21T17:48:16.018Z,18.60
2018-09-21T17:50:44.982Z,18.60
2018-09-21T17:53:14.482Z,18.48
2018-09-21T17:55:43.387Z,18.51
2018-09-21T17:58:12.275Z,18.50
2018-09-21T18:00:41.517Z,18.43
2018-09-21T18:03:10.349Z,18.51
2018-09-21T18:05:39.441Z,18.53
2018-09-21T18:08:08.744Z,18.69
2018-09-21T18:10:37.751Z,18.54
2018-09-21T18:13:06.734Z,18.54
2018-09-21T18:15:35.993Z,18.54
2018-09-21T18:18:07.044Z,18.51
2018-09-21T18:20:35.973Z,18.43
2018-09-21T18:23:04.884Z,18.45
2018-09-21T18:25:33.839Z,18.30
2018-09-21T18:28:04.865Z,18.19
2018-09-21T18:30:34.090Z,18.27
2018-09-21T18:33:03.004Z,18.24
2018-09-21T18:35:31.892Z,18.22
2018-09-21T18:38:01.071Z,18.25
2018-09-21T18:40:29.982Z,18.30
2018-09-21T18:42:58.904Z,18.29
2018-09-21T18:45:27.810Z,18.47
2018-09-21T18:47:56.730Z,18.50
2018-09-21T18:50:26.061Z,18.60
2018-09-21T18:52:55.066Z,18.60
2018-09-21T18:55:23.944Z,18.36
2018-09-21T18:57:52.810Z,18.28
2018-09-21T19:00:21.687Z,18.28
2018-09-21T19:02:50.963Z,18.17
2018-09-21T19:05:19.875Z,18.11
2018-09-21T19:07:48.837Z,18.04
2018-09-21T19:10:18.243Z,17.95
2018-09-21T19:12:47.320Z,17.87
2018-09-21T19:15:17.208Z,17.89
2018-09-21T19:17:46.434Z,17.85
2018-09-21T19:20:16.325Z,17.90
2018-09-21T19:22:45.184Z,17.92
2018-09-21T19:25:14.407Z,18.02
2018-09-21T19:27:43.320Z,17.94
2018-09-21T19:30:12.324Z,17.90
2018-09-21T19:32:41.596Z,17.87
2018-09-21T19:35:10.674Z,17.84
2018-09-21T19:37:39.579Z,17.88
2018-09-21T19:40:08.910Z,17.92
2018-09-21T19:42:37.930Z,17.67
2018-09-21T19:45:07.173Z,17.69
2018-09-21T19:47:36.604Z,17.68
2018-09-21T19:50:06.795Z,17.76
2018-09-21T19:52:35.714Z,17.78
2018-09-21T19:55:05.556Z,17.85
2018-09-21T19:57:34.493Z,17.88
2018-09-21T20:00:04.429Z,17.80
2018-09-21T20:02:33.591Z,17.87
2018-09-21T20:05:02.505Z,17.84
2018-09-21T20:07:31.397Z,17.92
2018-09-21T20:10:00.278Z,17.97
2018-09-21T20:12:29.138Z,17.89
2018-09-21T20:14:58.357Z,17.89
2018-09-21T20:17:27.268Z,17.94
2018-09-21T20:19:56.372Z,17.70
2018-09-21T20:22:25.784Z,17.61
2018-09-21T20:24:54.628Z,17.55
2018-09-21T20:27:23.633Z,17.63
2018-09-21T20:29:57.073Z,17.71
2018-09-21T20:32:30.967Z,17.74
2018-09-21T20:34:59.913Z,17.78
2018-09-21T20:37:29.194Z,17.71
2018-09-21T20:39:58.042Z,17.72
2018-09-21T20:42:27.072Z,17.68
2018-09-21T20:44:56.222Z,17.64
2018-09-21T20:47:25.137Z,17.69
2018-09-21T20:49:54.061Z,17.71
2018-09-21T20:52:23.232Z,17.85
2018-09-21T20:54:52.154Z,18.00
2018-09-21T20:57:21.032Z,18.02
2018-09-21T20:59:52.183Z,18.05
2018-09-21T21:02:21.135Z,18.09
2018-09-21T21:04:49.956Z,17.96
2018-09-21T21:07:19.222Z,17.87
2018-09-21T21:09:48.097Z,17.72
2018-09-21T21:12:17.453Z,17.75
2018-09-21T21:14:46.729Z,17.68
2018-09-21T21:17:15.673Z,17.78
2018-09-21T21:19:44.592Z,17.80
2018-09-21T21:22:13.476Z,17.85
2018-09-21T21:24:49.005Z,17.82
2018-09-21T21:27:18.206Z,17.85
2018-09-21T21:29:47.240Z,17.89
2018-09-21T21:32:16.326Z,17.92
2018-09-21T21:34:45.554Z,17.75
2018-09-21T21:37:14.429Z,17.54
2018-09-21T21:39:43.414Z,17.42
2018-09-21T21:42:12.790Z,17.36
2018-09-21T21:44:41.721Z,17.35
2018-09-21T21:47:10.572Z,17.31
2018-09-21T21:49:39.729Z,17.44
2018-09-21T21:52:08.636Z,17.55
2018-09-21T21:54:37.597Z,17.39
2018-09-21T21:57:06.884Z,17.24
2018-09-21T21:59:35.710Z,17.27
2018-09-21T22:02:09.404Z,17.19
2018-09-21T22:04:39.313Z,17.14
2018-09-21T22:07:08.860Z,17.10
2018-09-21T22:09:37.775Z,17.02
2018-09-21T22:12:12.157Z,16.95
2018-09-21T22:14:41.156Z,17.01
2018-09-21T22:17:10.103Z,16.94
2018-09-21T22:19:40.366Z,16.97
2018-09-21T22:22:09.234Z,16.93
2018-09-21T22:24:38.189Z,16.79
2018-09-21T22:27:07.450Z,16.77
2018-09-21T22:29:36.338Z,16.73
2018-09-21T22:32:05.818Z,16.78
2018-09-21T22:34:34.764Z,16.78
2018-09-21T22:37:03.809Z,16.83
2018-09-21T22:39:32.951Z,16.77
2018-09-21T22:42:02.437Z,16.74
2018-09-21T22:44:31.366Z,16.74
2018-09-21T22:47:00.545Z,16.84
2018-09-21T22:49:29.467Z,16.89
2018-09-21T22:51:58.365Z,16.81
2018-09-21T22:54:27.570Z,16.78
2018-09-21T22:56:56.461Z,16.75
2018-09-21T22:59:25.312Z,16.67
2018-09-21T23:01:54.477Z,16.68
2018-09-21T23:04:23.338Z,16.64
2018-09-21T23:06:52.283Z,16.65
2018-09-21T23:09:21.461Z,16.57
2018-09-21T23:11:50.349Z,16.62
2018-09-21T23:14:20.122Z,16.79
2018-09-21T23:17:03.739Z,16.87
2018-09-21T23:19:32.625Z,16.71
2018-09-21T23:22:01.585Z,16.71
2018-09-21T23:24:30.742Z,16.63
2018-09-21T23:26:59.617Z,16.61
2018-09-21T23:29:28.505Z,16.66
2018-09-21T23:31:57.349Z,16.70
2018-09-21T23:34:26.751Z,16.73
2018-09-21T23:36:55.617Z,16.61
2018-09-21T23:39:24.840Z,16.59
2018-09-21T23:41:53.718Z,16.59
2018-09-21T23:44:22.555Z,16.69
2018-09-21T23:46:51.929Z,16.62
2018-09-21T23:49:20.864Z,16.59
2018-09-21T23:51:49.716Z,16.44
2018-09-21T23:54:18.608Z,16.41
2018-09-21T23:56:47.837Z,16.32
2018-09-21T23:59:16.710Z,16.18
